createdAt,value
2022-09-20T00:00:20.626Z,2.83
2022-09-20T00:01:10.868Z,2.40
2022-09-20T00:01:52.593Z,2.53
2022-09-20T00:02:34.291Z,2.88
2022-09-20T00:03:17.342Z,2.65
2022-09-20T00:04:00.984Z,2.90
2022-09-20T00:04:42.675Z,2.45
2022-09-20T00:05:24.439Z,2.30
2022-09-20T00:06:08.939Z,2.67
2022-09-20T00:06:50.590Z,2.45
2022-09-20T00:07:32.521Z,2.40
2022-09-20T00:08:16.585Z,2.30
2022-09-20T00:08:59.605Z,2.53
2022-09-20T00:09:41.666Z,2.45
2022-09-20T00:10:24.441Z,2.60
2022-09-20T00:11:21.097Z,2.60
2022-09-20T00:12:02.898Z,2.72
2022-09-20T00:12:44.784Z,2.58
2022-09-20T00:13:26.471Z,3.10
2022-09-20T00:14:08.758Z,2.58
2022-09-20T00:14:50.535Z,2.58
2022-09-20T00:15:32.584Z,2.88
2022-09-20T00:16:17.690Z,2.80
2022-09-20T00:16:59.430Z,2.65
2022-09-20T00:17:41.120Z,2.33
2022-09-20T00:18:23.036Z,2.72
2022-09-20T00:19:06.197Z,3.20
2022-09-20T00:19:48.313Z,3.00
2022-09-20T00:20:29.936Z,2.60
2022-09-20T00:21:17.661Z,2.90
2022-09-20T00:21:59.311Z,3.40
2022-09-20T00:22:40.938Z,2.90
2022-09-20T00:23:22.589Z,2.92
2022-09-20T00:24:05.822Z,3.50
2022-09-20T00:24:49.083Z,2.70
2022-09-20T00:25:30.882Z,2.60
2022-09-20T00:26:13.868Z,2.70
2022-09-20T00:26:55.493Z,3.10
2022-09-20T00:27:37.133Z,3.05
2022-09-20T00:28:18.761Z,3.28
2022-09-20T00:29:01.593Z,2.70
2022-09-20T00:29:43.237Z,2.92
2022-09-20T00:30:24.896Z,2.88
2022-09-20T00:31:07.989Z,3.00
2022-09-20T00:31:49.672Z,3.05
2022-09-20T00:32:31.464Z,3.33
2022-09-20T00:33:13.089Z,3.30
2022-09-20T00:34:17.408Z,3.22
2022-09-20T00:35:07.958Z,3.00
2022-09-20T00:35:49.905Z,3.30
2022-09-20T00:36:31.578Z,3.22
2022-09-20T00:37:13.204Z,3.50
2022-09-20T00:37:55.375Z,3.70
2022-09-20T00:38:37.000Z,3.15
2022-09-20T00:39:18.676Z,3.65
2022-09-20T00:40:00.824Z,3.70
2022-09-20T00:40:44.566Z,3.50
2022-09-20T00:41:26.704Z,3.20
2022-09-20T00:42:14.014Z,3.20
2022-09-20T00:42:55.650Z,2.90
2022-09-20T00:43:38.954Z,2.97
2022-09-20T00:44:53.757Z,2.88
2022-09-20T00:45:35.501Z,2.95
2022-09-20T00:46:24.831Z,3.35
2022-09-20T00:47:10.446Z,3.70
2022-09-20T00:47:57.548Z,3.80
2022-09-20T00:48:39.217Z,4.45
2022-09-20T00:49:26.685Z,3.70
2022-09-20T00:50:20.637Z,3.60
2022-09-20T00:51:10.823Z,4.07
2022-09-20T00:51:57.582Z,3.55
2022-09-20T00:52:39.974Z,3.88
2022-09-20T00:53:29.586Z,3.70
2022-09-20T00:54:15.850Z,3.25
2022-09-20T00:55:03.082Z,3.00
2022-09-20T00:55:59.754Z,3.22
2022-09-20T00:56:44.019Z,3.00
2022-09-20T00:57:26.202Z,3.23
2022-09-20T00:58:08.454Z,3.17
2022-09-20T00:59:02.832Z,3.30
2022-09-20T00:59:47.848Z,3.80
2022-09-20T01:00:29.574Z,3.25
2022-09-20T01:01:11.622Z,3.80
2022-09-20T01:01:59.076Z,3.20
2022-09-20T01:02:49.241Z,3.50
2022-09-20T01:03:33.743Z,3.90
2022-09-20T01:04:16.620Z,3.63
2022-09-20T01:04:58.812Z,3.65
2022-09-20T01:05:41.720Z,3.58
2022-09-20T01:06:23.504Z,3.78
2022-09-20T01:07:07.985Z,4.22
2022-09-20T01:07:51.680Z,3.97
2022-09-20T01:08:35.301Z,4.00
2022-09-20T01:09:16.953Z,3.50
2022-09-20T01:09:58.593Z,3.45
2022-09-20T01:10:40.469Z,3.83
2022-09-20T01:11:22.221Z,3.90
2022-09-20T01:12:07.786Z,3.60
2022-09-20T01:12:51.529Z,4.15
2022-09-20T01:13:33.142Z,3.50
2022-09-20T01:14:17.069Z,3.60
2022-09-20T01:15:00.461Z,4.10
2022-09-20T01:15:43.975Z,3.85
2022-09-20T01:16:27.383Z,3.75
2022-09-20T01:17:09.516Z,3.92
2022-09-20T01:17:54.799Z,3.60
2022-09-20T01:18:37.647Z,4.22
2022-09-20T01:19:40.688Z,3.72
2022-09-20T01:20:29.203Z,4.10
2022-09-20T01:21:11.521Z,4.47
2022-09-20T01:21:54.263Z,3.53
2022-09-20T01:23:11.653Z,3.53
2022-09-20T01:24:13.390Z,4.07
2022-09-20T01:25:24.240Z,4.68
2022-09-20T01:26:20.521Z,3.40
2022-09-20T01:27:16.178Z,3.70
2022-09-20T01:27:58.150Z,4.15
2022-09-20T01:28:42.311Z,3.75
2022-09-20T01:29:34.579Z,3.80
2022-09-20T01:30:22.035Z,3.45
2022-09-20T01:31:26.658Z,4.07
2022-09-20T01:32:14.092Z,3.65
2022-09-20T01:33:10.643Z,3.85
2022-09-20T01:34:02.521Z,4.00
2022-09-20T01:34:58.327Z,3.40
2022-09-20T01:35:44.340Z,3.80
2022-09-20T01:36:34.977Z,4.03
2022-09-20T01:37:26.529Z,4.55
2022-09-20T01:38:33.049Z,4.05
2022-09-20T01:39:17.462Z,4.00
2022-09-20T01:40:10.580Z,4.00
2022-09-20T01:41:01.710Z,4.00
2022-09-20T01:41:59.065Z,3.90
2022-09-20T01:42:49.839Z,3.97
2022-09-20T01:43:50.273Z,3.50
2022-09-20T01:45:25.082Z,4.00
2022-09-20T01:46:32.682Z,4.38
2022-09-20T01:47:26.069Z,3.78
2022-09-20T01:48:38.954Z,3.30
2022-09-20T01:49:32.463Z,3.97
2022-09-20T01:50:33.014Z,4.45
2022-09-20T01:51:36.308Z,4.20
2022-09-20T01:52:56.026Z,3.60
2022-09-20T01:53:52.475Z,4.10
2022-09-20T01:54:52.257Z,4.55
2022-09-20T01:55:54.903Z,4.38
2022-09-20T01:56:42.040Z,4.40
2022-09-20T01:57:27.510Z,4.38
2022-09-20T01:58:24.278Z,4.68
2022-09-20T01:59:43.363Z,4.40
2022-09-20T02:00:30.962Z,4.20
2022-09-20T02:01:31.435Z,4.57
2022-09-20T02:02:21.733Z,3.70
2022-09-20T02:03:09.197Z,3.97
2022-09-20T02:04:36.226Z,4.55
2022-09-20T02:05:39.325Z,4.03
2022-09-20T02:06:36.038Z,3.90
2022-09-20T02:07:23.320Z,4.00
2022-09-20T02:08:56.110Z,4.20
2022-09-20T02:10:04.394Z,3.75
2022-09-20T02:10:58.079Z,4.78
2022-09-20T02:11:59.159Z,3.90
2022-09-20T02:12:56.025Z,4.18
2022-09-20T02:13:40.536Z,4.30
2022-09-20T02:14:31.397Z,3.67
2022-09-20T02:15:44.858Z,4.35
2022-09-20T02:16:48.315Z,4.40
2022-09-20T02:18:00.990Z,3.90
2022-09-20T02:19:03.519Z,4.63
2022-09-20T02:20:18.754Z,4.20
2022-09-20T02:21:24.009Z,4.20
2022-09-20T02:22:31.263Z,4.13
2022-09-20T02:23:34.874Z,4.47
2022-09-20T02:24:49.600Z,4.80
2022-09-20T02:26:03.582Z,4.40
2022-09-20T02:27:08.206Z,4.53
2022-09-20T02:28:07.178Z,4.30
2022-09-20T02:29:10.116Z,3.90
2022-09-20T02:30:06.706Z,4.00
2022-09-20T02:31:12.844Z,4.05
2022-09-20T02:32:14.849Z,4.90
2022-09-20T02:33:23.444Z,4.10
2022-09-20T02:34:27.699Z,3.80
2022-09-20T02:35:46.353Z,4.00
2022-09-20T02:36:46.477Z,4.55
2022-09-20T02:37:46.272Z,4.18
2022-09-20T02:38:46.318Z,3.78
2022-09-20T02:39:58.763Z,4.30
2022-09-20T02:41:16.961Z,4.68
2022-09-20T02:42:18.715Z,4.10
2022-09-20T02:43:25.498Z,4.38
2022-09-20T02:44:35.128Z,4.60
2022-09-20T02:45:28.476Z,4.13
2022-09-20T02:46:13.002Z,3.65
2022-09-20T02:47:40.030Z,3.53
2022-09-20T02:48:29.753Z,3.83
2022-09-20T02:49:23.742Z,4.70
2022-09-20T02:50:21.157Z,4.25
2022-09-20T02:51:17.642Z,3.80
2022-09-20T02:52:38.824Z,3.80
2022-09-20T02:53:37.718Z,4.13
2022-09-20T02:54:36.749Z,3.95
2022-09-20T02:55:40.711Z,3.90
2022-09-20T02:56:37.909Z,4.20
2022-09-20T02:57:44.646Z,3.85
2022-09-20T02:58:39.933Z,4.03
2022-09-20T03:00:00.565Z,4.70
2022-09-20T03:00:59.605Z,4.18
2022-09-20T03:01:52.638Z,3.40
2022-09-20T03:02:51.738Z,3.42
2022-09-20T03:04:08.447Z,3.85
2022-09-20T03:04:56.892Z,4.40
2022-09-20T03:06:08.556Z,4.10
2022-09-20T03:07:08.955Z,3.97
2022-09-20T03:08:18.442Z,3.60
2022-09-20T03:09:07.813Z,4.25
2022-09-20T03:10:08.295Z,4.03
2022-09-20T03:11:29.326Z,3.50
2022-09-20T03:12:45.784Z,3.65
2022-09-20T03:14:05.322Z,3.50
2022-09-20T03:14:59.419Z,3.45
2022-09-20T03:15:49.820Z,3.65
2022-09-20T03:16:51.876Z,3.33
2022-09-20T03:18:08.833Z,3.45
2022-09-20T03:19:17.347Z,4.47
2022-09-20T03:20:23.686Z,3.65
2022-09-20T03:21:26.745Z,3.17
2022-09-20T03:22:26.446Z,3.60
2022-09-20T03:23:30.990Z,3.80
2022-09-20T03:24:31.652Z,3.55
2022-09-20T03:25:34.232Z,3.88
2022-09-20T03:26:33.598Z,3.35
2022-09-20T03:27:31.529Z,4.10
2022-09-20T03:28:15.961Z,3.10
2022-09-20T03:29:01.281Z,3.90
2022-09-20T03:29:56.726Z,3.92
2022-09-20T03:30:41.465Z,3.50
2022-09-20T03:31:58.710Z,3.80
2022-09-20T03:32:46.966Z,4.10
2022-09-20T03:33:52.181Z,3.15
2022-09-20T03:35:20.527Z,3.60
2022-09-20T03:36:28.345Z,3.40
2022-09-20T03:37:44.745Z,3.17
2022-09-20T03:39:03.866Z,3.70
2022-09-20T03:40:25.417Z,3.20
2022-09-20T03:41:35.036Z,3.90
2022-09-20T03:42:27.069Z,3.28
2022-09-20T03:43:14.470Z,3.20
2022-09-20T03:44:16.990Z,2.92
2022-09-20T03:45:18.865Z,3.50
2022-09-20T03:46:10.134Z,2.90
2022-09-20T03:47:09.410Z,3.00
2022-09-20T03:48:00.322Z,3.13
2022-09-20T03:48:53.161Z,3.10
2022-09-20T03:49:56.595Z,3.30
2022-09-20T03:51:10.883Z,3.10
2022-09-20T03:52:14.213Z,2.80
2022-09-20T03:53:18.894Z,3.20
2022-09-20T03:54:31.138Z,3.10
2022-09-20T03:55:15.844Z,2.97
2022-09-20T03:56:23.566Z,3.10
2022-09-20T03:57:31.002Z,2.70
2022-09-20T03:58:31.314Z,2.58
2022-09-20T03:59:31.441Z,3.40
2022-09-20T04:00:22.656Z,2.40
2022-09-20T04:01:10.083Z,2.80
2022-09-20T04:02:19.049Z,3.60
2022-09-20T04:03:28.546Z,3.10
2022-09-20T04:04:24.772Z,2.70
2022-09-20T04:05:55.342Z,2.90
2022-09-20T04:07:01.476Z,2.80
2022-09-20T04:08:15.363Z,2.70
2022-09-20T04:09:05.173Z,2.50
2022-09-20T04:10:32.317Z,3.58
2022-09-20T04:11:46.247Z,2.50
2022-09-20T04:12:35.545Z,2.70
2022-09-20T04:13:48.253Z,2.60
2022-09-20T04:14:59.782Z,3.00
2022-09-20T04:16:03.014Z,2.75
2022-09-20T04:16:47.730Z,2.65
2022-09-20T04:17:41.451Z,3.20
2022-09-20T04:18:34.136Z,3.67
2022-09-20T04:19:53.220Z,2.45
2022-09-20T04:20:46.481Z,2.63
2022-09-20T04:21:57.586Z,2.90
2022-09-20T04:22:42.294Z,2.75
2022-09-20T04:23:35.876Z,2.50
2022-09-20T04:24:39.189Z,3.22
2022-09-20T04:25:49.707Z,3.05
2022-09-20T04:26:36.079Z,2.50
2022-09-20T04:27:29.891Z,2.40
2022-09-20T04:28:34.348Z,2.47
2022-09-20T04:29:34.960Z,2.70
2022-09-20T04:30:21.317Z,2.50
2022-09-20T04:31:16.328Z,2.35
2022-09-20T04:32:21.737Z,2.63
2022-09-20T04:33:36.124Z,2.65
2022-09-20T04:35:12.532Z,2.80
2022-09-20T04:36:29.449Z,2.55
2022-09-20T04:37:29.631Z,3.10
2022-09-20T04:38:16.714Z,3.13
2022-09-20T04:39:26.254Z,2.80
2022-09-20T04:40:20.537Z,2.53
2022-09-20T04:41:49.790Z,3.30
2022-09-20T04:42:37.255Z,2.90
2022-09-20T04:43:52.258Z,2.50
2022-09-20T04:44:58.737Z,2.90
2022-09-20T04:45:58.948Z,2.72
2022-09-20T04:47:01.534Z,3.40
2022-09-20T04:48:20.525Z,3.70
2022-09-20T04:49:47.088Z,3.60
2022-09-20T04:51:04.593Z,3.28
2022-09-20T04:52:43.541Z,2.92
2022-09-20T04:53:46.793Z,2.60
2022-09-20T04:55:03.191Z,3.10
2022-09-20T04:55:53.913Z,3.00
2022-09-20T04:56:53.536Z,3.60
2022-09-20T04:58:06.907Z,3.10
2022-09-20T04:59:08.851Z,3.40
2022-09-20T05:00:11.002Z,3.05
2022-09-20T05:01:07.746Z,3.20
2022-09-20T05:02:27.182Z,3.20
2022-09-20T05:03:27.227Z,3.28
2022-09-20T05:04:50.794Z,3.42
2022-09-20T05:05:59.313Z,3.20
2022-09-20T05:07:07.182Z,3.40
2022-09-20T05:08:17.769Z,3.00
2022-09-20T05:09:27.823Z,3.05
2022-09-20T05:10:30.957Z,3.67
2022-09-20T05:11:31.560Z,2.75
2022-09-20T05:12:54.569Z,2.97
2022-09-20T05:13:43.459Z,3.03
2022-09-20T05:14:37.029Z,3.40
2022-09-20T05:15:49.645Z,3.70
2022-09-20T05:16:58.618Z,3.65
2022-09-20T05:17:52.001Z,3.40
2022-09-20T05:19:16.471Z,3.50
2022-09-20T05:20:34.131Z,3.37
2022-09-20T05:21:37.570Z,3.55
2022-09-20T05:22:31.320Z,4.18
2022-09-20T05:23:22.316Z,3.60
2022-09-20T05:24:19.407Z,3.70
2022-09-20T05:25:27.136Z,3.60
2022-09-20T05:26:27.613Z,3.80
2022-09-20T05:27:36.445Z,3.88
2022-09-20T05:28:46.671Z,3.80
2022-09-20T05:29:48.601Z,4.00
2022-09-20T05:30:45.510Z,3.90
2022-09-20T05:32:03.304Z,3.60
2022-09-20T05:32:48.462Z,3.47
2022-09-20T05:33:49.000Z,4.10
2022-09-20T05:34:46.086Z,4.00
2022-09-20T05:36:09.702Z,4.45
2022-09-20T05:37:09.376Z,3.83
2022-09-20T05:38:16.571Z,4.10
2022-09-20T05:39:22.186Z,4.57
2022-09-20T05:40:31.459Z,3.95
2022-09-20T05:41:45.430Z,4.75
2022-09-20T05:43:05.785Z,4.60
2022-09-20T05:43:52.570Z,4.55
2022-09-20T05:44:40.140Z,4.10
2022-09-20T05:45:57.317Z,4.60
2022-09-20T05:46:50.049Z,4.72
2022-09-20T05:47:44.199Z,4.22
2022-09-20T05:48:44.289Z,4.70
2022-09-20T05:49:53.885Z,5.07
2022-09-20T05:50:44.440Z,4.55
2022-09-20T05:51:47.376Z,4.60
2022-09-20T05:52:44.059Z,5.03
2022-09-20T05:53:59.614Z,5.32
2022-09-20T05:54:44.329Z,5.40
2022-09-20T05:55:43.556Z,5.07
2022-09-20T05:56:30.951Z,5.07
2022-09-20T05:57:38.823Z,4.70
2022-09-20T05:58:53.401Z,5.63
2022-09-20T05:59:45.261Z,5.82
2022-09-20T06:00:38.511Z,5.60
2022-09-20T06:01:26.728Z,5.90
2022-09-20T06:02:21.572Z,5.00
2022-09-20T06:03:18.794Z,5.00
2022-09-20T06:04:41.854Z,5.35
2022-09-20T06:05:47.183Z,5.57
2022-09-20T06:06:49.897Z,5.50
2022-09-20T06:08:03.783Z,5.68
2022-09-20T06:09:06.662Z,5.60
2022-09-20T06:10:09.288Z,5.97
2022-09-20T06:11:20.184Z,6.10
2022-09-20T06:12:16.302Z,5.75
2022-09-20T06:13:25.361Z,5.10
2022-09-20T06:14:15.596Z,5.22
2022-09-20T06:15:19.690Z,5.60
2022-09-20T06:16:04.519Z,5.55
2022-09-20T06:16:55.050Z,5.80
2022-09-20T06:18:07.496Z,5.82
2022-09-20T06:19:11.011Z,5.40
2022-09-20T06:20:07.729Z,4.90
2022-09-20T06:21:18.824Z,6.03
2022-09-20T06:22:12.674Z,6.20
2022-09-20T06:23:00.770Z,6.00
2022-09-20T06:23:42.817Z,5.70
2022-09-20T06:24:39.245Z,5.43
2022-09-20T06:25:31.295Z,6.20
2022-09-20T06:26:26.416Z,5.82
2022-09-20T06:27:33.585Z,5.80
2022-09-20T06:28:21.174Z,6.03
2022-09-20T06:29:07.170Z,5.95
2022-09-20T06:29:57.539Z,6.30
2022-09-20T06:30:52.153Z,6.50
2022-09-20T06:31:33.906Z,6.65
2022-09-20T06:32:19.144Z,6.50
2022-09-20T06:33:14.866Z,6.60
2022-09-20T06:34:05.555Z,6.97
2022-09-20T06:34:48.070Z,7.55
2022-09-20T06:35:43.724Z,7.60
2022-09-20T06:36:51.430Z,7.55
2022-09-20T06:38:09.877Z,8.00
2022-09-20T06:39:30.994Z,8.07
2022-09-20T06:40:51.183Z,8.13
2022-09-20T06:41:34.693Z,8.30
2022-09-20T06:42:16.458Z,8.07
2022-09-20T06:43:00.706Z,7.72
2022-09-20T06:43:42.978Z,8.32
2022-09-20T06:44:24.610Z,8.52
2022-09-20T06:45:06.643Z,8.23
2022-09-20T06:45:48.534Z,7.53
2022-09-20T06:46:32.974Z,8.18
2022-09-20T06:47:15.067Z,9.18
2022-09-20T06:47:56.706Z,8.90
2022-09-20T06:48:39.918Z,9.20
2022-09-20T06:49:24.023Z,8.90
2022-09-20T06:50:06.278Z,8.50
2022-09-20T06:50:48.095Z,8.25
2022-09-20T06:51:35.625Z,8.02
2022-09-20T06:52:20.207Z,8.52
2022-09-20T06:53:02.858Z,8.13
2022-09-20T06:53:44.696Z,8.30
2022-09-20T06:54:27.102Z,9.77
2022-09-20T06:55:26.044Z,9.30
2022-09-20T06:56:17.590Z,9.43
2022-09-20T06:57:03.197Z,8.75
2022-09-20T06:57:45.788Z,8.30
2022-09-20T06:58:28.243Z,9.48
2022-09-20T06:59:12.859Z,9.50
2022-09-20T06:59:54.509Z,9.68
2022-09-20T07:00:36.919Z,8.95
2022-09-20T07:01:29.287Z,10.52
2022-09-20T07:02:12.141Z,10.90
2022-09-20T07:02:56.663Z,10.30
2022-09-20T07:03:38.425Z,10.55
2022-09-20T07:04:20.329Z,10.35
2022-09-20T07:05:01.991Z,9.50
2022-09-20T07:05:43.631Z,10.48
2022-09-20T07:06:25.375Z,10.48
2022-09-20T07:07:09.580Z,9.63
2022-09-20T07:07:59.338Z,9.95
2022-09-20T07:08:42.319Z,9.70
2022-09-20T07:09:23.943Z,9.35
2022-09-20T07:10:05.908Z,10.02
2022-09-20T07:10:48.044Z,9.38
2022-09-20T07:11:29.848Z,9.73
2022-09-20T07:12:12.352Z,9.35
2022-09-20T07:12:59.393Z,8.93
2022-09-20T07:13:41.330Z,9.40
2022-09-20T07:14:23.401Z,9.75
2022-09-20T07:15:06.201Z,9.43
2022-09-20T07:15:47.845Z,10.63
2022-09-20T07:16:29.656Z,10.50
2022-09-20T07:17:11.438Z,9.05
2022-09-20T07:17:53.245Z,9.48
2022-09-20T07:18:35.289Z,9.13
2022-09-20T07:19:16.947Z,9.57
2022-09-20T07:19:59.837Z,9.50
2022-09-20T07:20:41.826Z,8.55
2022-09-20T07:21:23.741Z,8.60
2022-09-20T07:22:05.438Z,9.02
2022-09-20T07:22:48.256Z,9.20
2022-09-20T07:23:30.138Z,8.73
2022-09-20T07:24:14.157Z,9.15
2022-09-20T07:24:55.816Z,10.38
2022-09-20T07:25:37.696Z,9.77
2022-09-20T07:26:22.689Z,10.13
2022-09-20T07:27:05.257Z,9.80
2022-09-20T07:27:50.312Z,10.50
2022-09-20T07:28:34.899Z,9.98
2022-09-20T07:29:16.638Z,9.52
2022-09-20T07:29:58.291Z,9.80
2022-09-20T07:30:40.012Z,9.43
2022-09-20T07:31:23.900Z,9.15
2022-09-20T07:32:05.735Z,8.80
2022-09-20T07:32:47.424Z,8.38
2022-09-20T07:33:29.064Z,9.10
2022-09-20T07:34:11.010Z,8.40
2022-09-20T07:34:52.685Z,8.43
2022-09-20T07:35:34.331Z,8.63
2022-09-20T07:36:16.564Z,8.00
2022-09-20T07:36:59.920Z,8.10
2022-09-20T07:37:41.895Z,8.05
2022-09-20T07:38:24.380Z,8.30
2022-09-20T07:39:06.010Z,7.85
2022-09-20T07:39:47.685Z,7.57
2022-09-20T07:40:29.359Z,7.53
2022-09-20T07:41:11.033Z,6.65
2022-09-20T07:41:53.064Z,6.65
2022-09-20T07:42:34.713Z,6.93
2022-09-20T07:43:16.427Z,6.57
2022-09-20T07:44:18.138Z,6.68
2022-09-20T07:45:02.792Z,7.00
2022-09-20T07:45:44.593Z,6.43
2022-09-20T07:46:26.285Z,6.75
2022-09-20T07:47:10.187Z,6.50
2022-09-20T07:47:53.317Z,6.13
2022-09-20T07:48:36.801Z,5.63
2022-09-20T07:49:18.949Z,6.10
2022-09-20T07:50:00.935Z,5.50
2022-09-20T07:50:54.454Z,5.80
2022-09-20T07:51:36.115Z,5.18
2022-09-20T07:52:18.695Z,6.03
2022-09-20T07:53:00.868Z,5.50
2022-09-20T07:53:42.566Z,5.32
2022-09-20T07:54:24.434Z,5.30
2022-09-20T07:55:06.440Z,4.90
2022-09-20T07:56:05.112Z,5.22
2022-09-20T07:56:46.857Z,4.75
2022-09-20T07:57:28.484Z,4.60
2022-09-20T07:58:10.154Z,4.05
2022-09-20T07:58:52.655Z,5.03
2022-09-20T07:59:34.410Z,5.55
2022-09-20T08:00:16.252Z,5.25
2022-09-20T08:01:00.583Z,4.70
2022-09-20T08:01:42.691Z,5.50
2022-09-20T08:02:24.454Z,4.28
2022-09-20T08:03:06.123Z,4.38
2022-09-20T08:03:47.974Z,4.63
2022-09-20T08:04:29.701Z,5.30
2022-09-20T08:05:12.038Z,4.55
2022-09-20T08:06:00.353Z,4.15
2022-09-20T08:06:46.296Z,4.15
2022-09-20T08:07:29.165Z,4.60
2022-09-20T08:08:11.658Z,4.85
2022-09-20T08:08:54.466Z,5.28
2022-09-20T08:09:36.138Z,4.20
2022-09-20T08:10:17.875Z,4.07
2022-09-20T08:11:06.375Z,4.30
2022-09-20T08:11:48.538Z,4.38
2022-09-20T08:14:44.924Z,3.90
2022-09-20T08:15:26.598Z,4.07
2022-09-20T08:16:10.938Z,3.60
2022-09-20T08:16:52.725Z,3.90
2022-09-20T08:17:34.410Z,4.32
2022-09-20T08:18:17.037Z,4.50
2022-09-20T08:19:01.086Z,4.35
2022-09-20T08:19:43.391Z,3.90
2022-09-20T08:20:25.085Z,4.40
2022-09-20T08:21:11.117Z,4.30
2022-09-20T08:21:55.971Z,4.60
2022-09-20T08:22:40.309Z,4.85
2022-09-20T08:23:24.065Z,4.10
2022-09-20T08:24:06.175Z,4.30
2022-09-20T08:24:47.820Z,4.13
2022-09-20T08:25:29.558Z,3.90
2022-09-20T08:26:13.970Z,4.05
2022-09-20T08:26:55.674Z,4.10
2022-09-20T08:27:37.534Z,3.58
2022-09-20T08:28:19.179Z,3.30
2022-09-20T08:29:01.351Z,3.40
2022-09-20T08:29:43.058Z,3.88
2022-09-20T08:30:27.764Z,3.80
2022-09-20T08:31:20.975Z,3.10
2022-09-20T08:32:03.196Z,3.22
2022-09-20T08:32:44.931Z,3.50
2022-09-20T08:33:26.561Z,3.08
2022-09-20T08:34:10.294Z,3.45
2022-09-20T08:34:51.968Z,2.90
2022-09-20T08:35:38.093Z,3.10
2022-09-20T08:36:24.627Z,2.90
2022-09-20T08:37:06.355Z,3.17
2022-09-20T08:37:47.977Z,3.10
2022-09-20T08:40:36.779Z,2.63
2022-09-20T08:41:22.856Z,2.70
2022-09-20T08:42:34.932Z,2.90
2022-09-20T08:43:22.387Z,2.80
2022-09-20T08:44:29.569Z,2.78
2022-09-20T08:45:22.242Z,2.85
2022-09-20T08:46:06.921Z,2.58
2022-09-20T08:46:52.429Z,2.42
2022-09-20T08:47:37.723Z,3.00
2022-09-20T08:48:22.199Z,2.95
2022-09-20T08:49:11.041Z,2.83
2022-09-20T08:49:57.786Z,2.22
2022-09-20T08:50:39.640Z,2.70
2022-09-20T08:51:23.325Z,2.58
2022-09-20T08:52:10.322Z,2.60
2022-09-20T08:53:00.080Z,2.80
2022-09-20T08:54:04.661Z,2.40
2022-09-20T08:54:46.725Z,2.35
2022-09-20T08:55:36.435Z,2.50
2022-09-20T08:56:19.111Z,2.90
2022-09-20T08:57:14.095Z,2.10
2022-09-20T08:57:58.087Z,2.30
2022-09-20T08:58:40.082Z,2.30
2022-09-20T08:59:23.254Z,2.40
2022-09-20T09:00:06.299Z,2.40
2022-09-20T09:00:48.108Z,2.67
2022-09-20T09:01:32.308Z,2.20
2022-09-20T09:02:19.959Z,2.35
2022-09-20T09:03:06.325Z,2.50
2022-09-20T09:03:51.416Z,2.88
2022-09-20T09:04:37.008Z,1.95
2022-09-20T09:05:43.065Z,2.40
2022-09-20T09:06:25.595Z,2.85
2022-09-20T09:07:12.047Z,3.13
2022-09-20T09:07:53.714Z,3.20
2022-09-20T09:08:38.199Z,3.10
2022-09-20T09:09:25.598Z,3.10
2022-09-20T09:10:09.034Z,3.17
2022-09-20T09:11:14.145Z,3.38
2022-09-20T09:11:58.750Z,3.40
2022-09-20T09:12:48.609Z,3.20
2022-09-20T09:13:55.892Z,3.65
2022-09-20T09:14:48.180Z,2.97
2022-09-20T09:15:36.077Z,3.30
2022-09-20T09:16:25.668Z,3.30
2022-09-20T09:17:14.688Z,3.67
2022-09-20T09:17:56.420Z,3.20
2022-09-20T09:18:41.110Z,3.35
2022-09-20T09:19:36.272Z,3.03
2022-09-20T09:20:23.970Z,2.92
2022-09-20T09:21:07.780Z,3.17
2022-09-20T09:21:49.451Z,3.30
2022-09-20T09:22:36.804Z,2.72
2022-09-20T09:23:27.224Z,2.78
2022-09-20T09:24:17.980Z,2.10
2022-09-20T09:25:15.278Z,3.20
2022-09-20T09:26:02.852Z,2.90
2022-09-20T09:26:44.814Z,2.97
2022-09-20T09:27:26.509Z,2.30
2022-09-20T09:28:08.107Z,2.85
2022-09-20T09:29:20.446Z,3.40
2022-09-20T09:30:02.234Z,2.85
2022-09-20T09:30:49.607Z,2.92
2022-09-20T09:31:31.397Z,2.60
2022-09-20T09:32:23.706Z,2.40
2022-09-20T09:33:24.014Z,2.80
2022-09-20T09:34:22.136Z,2.90
2022-09-20T09:35:26.169Z,2.17
2022-09-20T09:36:14.953Z,2.42
2022-09-20T09:36:58.054Z,2.80
2022-09-20T09:37:40.814Z,2.58
2022-09-20T09:38:26.490Z,2.40
2022-09-20T09:39:24.398Z,2.60
2022-09-20T09:40:13.677Z,2.45
2022-09-20T09:41:01.485Z,2.33
2022-09-20T09:41:44.347Z,2.40
2022-09-20T09:42:28.820Z,2.80
2022-09-20T09:43:27.052Z,2.58
2022-09-20T09:44:22.154Z,2.80
2022-09-20T09:45:26.269Z,2.55
2022-09-20T09:46:23.983Z,2.47
2022-09-20T09:47:27.557Z,2.50
2022-09-20T09:48:32.875Z,2.50
2022-09-20T09:49:20.274Z,3.00
2022-09-20T09:50:06.094Z,3.00
2022-09-20T09:50:56.794Z,2.47
2022-09-20T09:51:39.340Z,3.20
2022-09-20T09:52:26.780Z,3.40
2022-09-20T09:53:18.438Z,2.47
2022-09-20T09:54:01.683Z,2.72
2022-09-20T09:54:48.900Z,2.70
2022-09-20T09:56:00.561Z,3.00
2022-09-20T09:57:06.993Z,2.67
2022-09-20T09:57:52.008Z,2.70
2022-09-20T09:59:12.482Z,2.23
2022-09-20T10:00:04.132Z,2.50
2022-09-20T10:00:48.412Z,2.40
2022-09-20T10:01:59.580Z,2.42
2022-09-20T10:03:05.250Z,2.15
2022-09-20T10:03:57.673Z,1.92
2022-09-20T10:05:08.650Z,2.33
2022-09-20T10:06:20.159Z,2.35
2022-09-20T10:07:14.250Z,2.40
2022-09-20T10:08:22.481Z,2.30
2022-09-20T10:09:13.334Z,2.20
2022-09-20T10:09:54.956Z,2.03
2022-09-20T10:10:54.147Z,2.33
2022-09-20T10:12:10.073Z,1.83
2022-09-20T10:12:57.783Z,2.00
2022-09-20T10:13:46.015Z,2.45
2022-09-20T10:14:34.114Z,2.45
2022-09-20T10:15:37.074Z,2.40
2022-09-20T10:16:56.243Z,2.35
2022-09-20T10:17:56.070Z,2.13
2022-09-20T10:19:19.464Z,2.45
2022-09-20T10:20:21.825Z,1.88
2022-09-20T10:21:11.632Z,2.20
2022-09-20T10:22:11.023Z,1.65
2022-09-20T10:23:34.542Z,2.00
2022-09-20T10:24:30.190Z,2.42
2022-09-20T10:25:32.073Z,1.50
2022-09-20T10:26:25.839Z,1.70
2022-09-20T10:27:10.335Z,1.90
2022-09-20T10:28:10.981Z,1.60
2022-09-20T10:29:26.245Z,2.03
2022-09-20T10:30:12.510Z,2.00
2022-09-20T10:31:35.582Z,1.60
2022-09-20T10:32:45.948Z,1.85
2022-09-20T10:33:44.256Z,2.35
2022-09-20T10:34:58.157Z,1.80
2022-09-20T10:36:27.136Z,1.80
2022-09-20T10:37:24.105Z,2.13
2022-09-20T10:38:13.953Z,2.15
2022-09-20T10:39:17.390Z,2.25
2022-09-20T10:40:14.629Z,1.88
2022-09-20T10:41:55.135Z,1.90
2022-09-20T10:43:07.030Z,2.20
2022-09-20T10:44:18.791Z,2.10
2022-09-20T10:45:42.040Z,2.17
2022-09-20T10:46:36.103Z,2.50
2022-09-20T10:47:22.489Z,1.70
2022-09-20T10:48:26.882Z,1.80
2022-09-20T10:49:26.714Z,2.00
2022-09-20T10:50:45.872Z,2.10
2022-09-20T10:51:46.411Z,1.80
2022-09-20T10:52:56.068Z,1.88
2022-09-20T10:53:53.018Z,2.15
2022-09-20T10:54:55.107Z,2.25
2022-09-20T10:56:24.371Z,2.50
2022-09-20T10:57:37.563Z,1.73
2022-09-20T10:59:14.326Z,2.00
2022-09-20T11:00:28.759Z,1.80
2022-09-20T11:01:17.657Z,1.90
2022-09-20T11:01:59.474Z,2.30
2022-09-20T11:02:52.839Z,2.10
2022-09-20T11:04:01.393Z,2.10
2022-09-20T11:04:52.093Z,2.10
2022-09-20T11:05:59.820Z,2.20
2022-09-20T11:07:00.008Z,2.78
2022-09-20T11:08:07.165Z,2.38
2022-09-20T11:08:54.138Z,2.03
2022-09-20T11:09:40.346Z,1.90
2022-09-20T11:10:41.062Z,1.70
2022-09-20T11:11:42.436Z,1.65
2022-09-20T11:12:38.275Z,1.70
2022-09-20T11:13:50.294Z,2.30
2022-09-20T11:14:52.409Z,2.17
2022-09-20T11:15:53.722Z,1.65
2022-09-20T11:16:45.968Z,2.00
2022-09-20T11:17:34.600Z,1.53
2022-09-20T11:18:25.459Z,1.88
2022-09-20T11:19:10.058Z,1.80
2022-09-20T11:20:08.016Z,1.88
2022-09-20T11:21:07.517Z,1.98
2022-09-20T11:22:10.940Z,1.70
2022-09-20T11:23:00.048Z,1.70
2022-09-20T11:23:50.945Z,1.60
2022-09-20T11:24:38.108Z,2.00
2022-09-20T11:25:44.902Z,1.98
2022-09-20T11:26:38.660Z,1.83
2022-09-20T11:27:41.547Z,2.00
2022-09-20T11:28:42.585Z,1.45
2022-09-20T11:29:42.161Z,1.60
2022-09-20T11:30:24.677Z,1.50
2022-09-20T11:31:19.765Z,1.60
2022-09-20T11:32:38.190Z,1.95
2022-09-20T11:33:31.488Z,2.00
2022-09-20T11:34:27.480Z,2.10
2022-09-20T11:35:11.917Z,2.28
2022-09-20T11:35:58.038Z,1.92
2022-09-20T11:37:03.319Z,1.80
2022-09-20T11:37:51.979Z,2.20
2022-09-20T11:38:40.199Z,1.80
2022-09-20T11:39:42.806Z,1.55
2022-09-20T11:40:36.926Z,1.90
2022-09-20T11:41:30.051Z,1.90
2022-09-20T11:42:24.933Z,1.50
2022-09-20T11:43:09.427Z,1.85
2022-09-20T11:43:53.051Z,1.63
2022-09-20T11:44:39.465Z,1.88
2022-09-20T11:45:25.190Z,1.73
2022-09-20T11:46:18.296Z,2.10
2022-09-20T11:47:05.564Z,1.70
2022-09-20T11:47:55.843Z,1.70
2022-09-20T11:48:48.058Z,1.70
2022-09-20T11:50:00.121Z,2.05
2022-09-20T11:51:16.600Z,1.80
2022-09-20T11:52:17.247Z,2.10
2022-09-20T11:53:46.885Z,2.20
2022-09-20T11:54:37.432Z,1.80
2022-09-20T11:55:36.887Z,1.90
2022-09-20T11:56:23.114Z,1.55
2022-09-20T11:57:07.959Z,1.98
2022-09-20T11:58:05.083Z,2.25
2022-09-20T11:59:01.351Z,2.08
2022-09-20T11:59:52.756Z,1.38
2022-09-20T12:00:38.398Z,2.08
2022-09-20T12:01:45.204Z,2.20
2022-09-20T12:02:50.834Z,1.60
2022-09-20T12:03:38.554Z,2.08
2022-09-20T12:04:39.006Z,1.60
2022-09-20T12:05:41.745Z,1.90